createdAt,value
2018-04-22T00:02:52.208Z,15.60
2018-04-22T00:08:20.412Z,15.60
2018-04-22T00:13:48.567Z,15.50
2018-04-22T00:19:16.757Z,15.40
2018-04-22T00:24:44.911Z,15.30
2018-04-22T00:30:13.090Z,15.30
2018-04-22T00:35:42.211Z,15.20
2018-04-22T00:41:11.141Z,15.10
2018-04-22T00:46:40.064Z,15.00
2018-04-22T00:52:09.133Z,15.00
2018-04-22T00:57:38.039Z,14.90
2018-04-22T01:03:06.197Z,14.80
2018-04-22T01:08:35.120Z,14.70
2018-04-22T01:14:03.277Z,14.70
2018-04-22T01:19:31.479Z,14.70
2018-04-22T01:25:00.411Z,14.50
2018-04-22T01:30:29.376Z,14.40
2018-04-22T01:35:57.640Z,14.40
2018-04-22T01:41:25.803Z,14.30
2018-04-22T01:46:54.720Z,14.20
2018-04-22T01:52:23.621Z,14.20
2018-04-22T01:57:51.793Z,14.20
2018-04-22T02:03:20.717Z,14.00
2018-04-22T02:08:48.880Z,13.90
2018-04-22T02:14:17.020Z,13.90
2018-04-22T02:19:45.186Z,13.80
2018-04-22T02:25:14.139Z,13.70
2018-04-22T02:30:42.276Z,13.60
2018-04-22T02:36:10.564Z,13.60
2018-04-22T02:41:39.501Z,13.50
2018-04-22T02:47:08.437Z,13.30
2018-04-22T02:52:37.356Z,13.30
2018-04-22T02:58:05.526Z,13.30
2018-04-22T03:03:33.702Z,13.30
2018-04-22T03:09:01.898Z,13.20
2018-04-22T03:14:30.113Z,13.20
2018-04-22T03:19:58.295Z,13.10
2018-04-22T03:25:26.464Z,13.10
2018-04-22T03:30:54.626Z,13.00
2018-04-22T03:36:23.555Z,13.00
2018-04-22T03:41:52.489Z,12.90
2018-04-22T03:47:21.412Z,12.80
2018-04-22T03:52:49.578Z,12.80
2018-04-22T03:58:18.507Z,12.70
2018-04-22T04:03:46.658Z,12.60
2018-04-22T04:09:14.795Z,12.70
2018-04-22T04:14:42.950Z,12.60
2018-04-22T04:20:29.927Z,12.60
2018-04-22T04:32:22.952Z,12.50
2018-04-22T04:37:51.103Z,12.50
2018-04-22T04:43:20.030Z,12.50
2018-04-22T04:48:48.189Z,12.50
2018-04-22T04:54:16.361Z,12.50
2018-04-22T04:59:44.463Z,12.60
2018-04-22T05:05:12.616Z,12.60
2018-04-22T05:10:41.630Z,12.80
2018-04-22T05:16:09.804Z,12.80
2018-04-22T05:21:37.965Z,13.00
2018-04-22T05:27:06.315Z,13.20
2018-04-22T05:32:35.219Z,13.70
2018-04-22T05:38:03.370Z,13.70
2018-04-22T05:43:31.518Z,14.00
2018-04-22T05:48:59.713Z,14.40
2018-04-22T05:54:28.659Z,14.90
2018-04-22T05:59:57.567Z,15.10
2018-04-22T06:05:25.706Z,15.10
2018-04-22T06:10:54.692Z,15.60
2018-04-22T06:16:24.842Z,15.60
2018-04-22T06:21:52.994Z,15.90
2018-04-22T06:27:21.135Z,16.20
2018-04-22T06:32:49.268Z,16.50
2018-04-22T06:38:18.172Z,17.00
2018-04-22T06:43:46.334Z,17.00
2018-04-22T06:49:19.158Z,17.60
2018-04-22T06:54:49.734Z,17.90
2018-04-22T07:00:18.900Z,18.30
2018-04-22T07:05:47.045Z,18.20
2018-04-22T07:11:15.231Z,18.60
2018-04-22T07:16:43.387Z,18.90
2018-04-22T07:22:11.532Z,19.20
2018-04-22T07:27:43.901Z,19.50
2018-04-22T07:33:12.061Z,19.70
2018-04-22T07:38:40.215Z,19.80
2018-04-22T07:44:13.289Z,20.30
2018-04-22T07:49:41.460Z,20.20
2018-04-22T07:55:10.638Z,20.50
2018-04-22T08:00:39.989Z,20.70
2018-04-22T08:06:08.181Z,20.90
2018-04-22T08:11:39.270Z,21.20
2018-04-22T08:17:07.445Z,21.20
2018-04-22T08:22:36.578Z,21.40
2018-04-22T08:28:05.515Z,21.80
2018-04-22T08:33:33.812Z,21.80
2018-04-22T08:39:01.985Z,22.10
2018-04-22T08:44:30.185Z,22.40
2018-04-22T08:49:58.499Z,22.60
2018-04-22T08:55:26.741Z,22.80
2018-04-22T09:00:54.888Z,23.00
2018-04-22T09:06:26.105Z,23.30
2018-04-22T09:11:54.256Z,23.50
2018-04-22T09:17:22.489Z,23.70
2018-04-22T09:22:50.772Z,23.90
2018-04-22T09:28:18.938Z,24.10
2018-04-22T09:33:47.090Z,24.20
2018-04-22T09:39:16.049Z,24.70
2018-04-22T09:44:44.202Z,24.60
2018-04-22T09:50:12.347Z,24.90
2018-04-22T09:55:40.550Z,25.10
2018-04-22T10:01:08.727Z,25.20
2018-04-22T10:06:36.888Z,25.20
2018-04-22T10:12:05.106Z,25.30
2018-04-22T10:17:34.998Z,25.40
2018-04-22T10:23:04.174Z,25.70
2018-04-22T10:28:32.537Z,25.90
2018-04-22T10:34:01.519Z,26.10
2018-04-22T10:39:30.721Z,26.30
2018-04-22T10:44:58.899Z,26.40
2018-04-22T10:50:27.277Z,26.40
2018-04-22T10:55:55.426Z,26.60
2018-04-22T11:01:24.489Z,27.00
2018-04-22T11:06:52.705Z,27.00
2018-04-22T11:12:20.867Z,27.20
2018-04-22T11:17:49.041Z,27.50
2018-04-22T11:23:18.273Z,27.70
2018-04-22T11:28:58.109Z,27.70
2018-04-22T11:34:28.351Z,27.80
2018-04-22T11:39:57.296Z,27.80
2018-04-22T11:45:25.488Z,27.80
2018-04-22T11:50:53.638Z,28.00
2018-04-22T11:56:21.794Z,28.20
2018-04-22T12:01:49.941Z,28.40
2018-04-22T12:07:18.158Z,28.20
2018-04-22T12:12:46.315Z,28.20
2018-04-22T12:18:15.536Z,28.20
2018-04-22T12:23:44.455Z,28.40
2018-04-22T12:29:12.622Z,28.40
2018-04-22T12:34:41.751Z,28.60
2018-04-22T12:40:11.680Z,28.70
2018-04-22T12:45:39.956Z,28.70
2018-04-22T12:51:08.176Z,28.60
2018-04-22T12:56:36.330Z,28.10
2018-04-22T13:02:04.533Z,27.70
2018-04-22T13:07:32.738Z,27.50
2018-04-22T13:13:01.928Z,27.30
2018-04-22T13:18:30.128Z,26.90
2018-04-22T13:23:58.324Z,27.10
2018-04-22T13:29:26.556Z,27.50
2018-04-22T13:34:55.033Z,27.80
2018-04-22T13:40:24.044Z,27.60
2018-04-22T13:45:52.238Z,27.60
2018-04-22T13:51:21.349Z,27.60
2018-04-22T13:56:50.818Z,27.60
2018-04-22T14:02:18.968Z,27.60
2018-04-22T14:07:47.529Z,28.00
2018-04-22T14:13:16.026Z,28.40
2018-04-22T14:18:44.188Z,28.30
2018-04-22T14:24:13.101Z,29.10
2018-04-22T14:29:41.825Z,29.00
2018-04-22T14:35:10.057Z,30.70
2018-04-22T14:40:38.267Z,34.70
2018-04-22T14:46:14.129Z,39.20
2018-04-22T14:51:42.279Z,40.90
2018-04-22T14:57:10.450Z,41.60
2018-04-22T15:02:39.373Z,40.60
2018-04-22T15:08:07.724Z,40.60
2018-04-22T15:13:37.049Z,36.80
2018-04-22T15:19:06.004Z,33.50
2018-04-22T15:24:37.905Z,33.40
2018-04-22T15:30:07.210Z,32.30
2018-04-22T15:35:36.590Z,34.00
2018-04-22T15:41:05.594Z,34.20
2018-04-22T15:46:34.752Z,34.20
2018-04-22T15:52:03.106Z,32.90
2018-04-22T15:57:32.119Z,30.20
2018-04-22T16:03:00.325Z,30.10
2018-04-22T16:08:28.531Z,29.40
2018-04-22T16:13:57.894Z,29.10
2018-04-22T16:19:26.186Z,28.70
2018-04-22T16:24:54.357Z,28.20
2018-04-22T16:30:23.654Z,27.90
2018-04-22T16:35:52.722Z,27.20
2018-04-22T16:41:21.197Z,27.20
2018-04-22T16:46:51.385Z,27.10
2018-04-22T16:52:19.532Z,26.90
2018-04-22T16:57:49.664Z,26.70
2018-04-22T17:03:17.847Z,26.50
2018-04-22T17:08:46.002Z,26.20
2018-04-22T17:14:16.310Z,26.00
2018-04-22T17:19:46.493Z,25.80
2018-04-22T17:25:20.773Z,25.60
2018-04-22T17:30:49.000Z,25.40
2018-04-22T17:36:17.206Z,25.20
2018-04-22T17:41:47.241Z,25.00
2018-04-22T17:47:16.428Z,24.80
2018-04-22T17:52:45.399Z,24.50
2018-04-22T17:58:13.548Z,24.40
2018-04-22T18:03:41.705Z,24.30
2018-04-22T18:09:11.355Z,23.80
2018-04-22T18:14:39.629Z,23.90
2018-04-22T18:20:09.022Z,23.50
2018-04-22T18:25:37.267Z,23.40
2018-04-22T18:31:05.548Z,23.30
2018-04-22T18:36:33.699Z,23.10
2018-04-22T18:42:02.665Z,22.60
2018-04-22T18:47:30.822Z,22.60
2018-04-22T18:52:59.266Z,22.40
2018-04-22T18:58:27.467Z,22.10
2018-04-22T19:03:55.620Z,21.90
2018-04-22T19:09:24.558Z,21.50
2018-04-22T19:14:56.393Z,21.50
2018-04-22T19:20:24.536Z,21.30
2018-04-22T19:25:52.697Z,21.10
2018-04-22T19:31:21.634Z,20.70
2018-04-22T19:36:49.924Z,20.60
2018-04-22T19:42:19.058Z,20.40
2018-04-22T19:47:47.237Z,20.30
2018-04-22T19:53:16.189Z,19.90
2018-04-22T19:58:44.952Z,19.80
2018-04-22T20:04:13.160Z,19.60
2018-04-22T20:09:41.477Z,19.40
2018-04-22T20:15:09.651Z,19.20
2018-04-22T20:20:42.390Z,19.10
2018-04-22T20:26:11.336Z,18.80
2018-04-22T20:31:41.195Z,18.70
2018-04-22T20:37:10.104Z,18.50
2018-04-22T20:42:38.263Z,18.50
2018-04-22T20:48:07.208Z,18.30
2018-04-22T20:53:35.370Z,18.30
2018-04-22T20:59:04.594Z,18.20
2018-04-22T21:04:32.771Z,18.10
2018-04-22T21:10:01.757Z,17.90
2018-04-22T21:15:29.934Z,17.90
2018-04-22T21:20:59.102Z,17.80
2018-04-22T21:26:28.165Z,17.80
2018-04-22T21:31:56.352Z,17.90
2018-04-22T21:37:25.619Z,17.80
2018-04-22T21:42:53.790Z,17.70
2018-04-22T21:48:28.389Z,17.70
2018-04-22T21:53:57.326Z,17.60
2018-04-22T21:59:26.242Z,17.60
2018-04-22T22:04:54.385Z,17.50
2018-04-22T22:10:23.324Z,17.30
2018-04-22T22:15:53.904Z,17.20
2018-04-22T22:21:22.830Z,17.10
2018-04-22T22:26:51.738Z,17.00
2018-04-22T22:32:28.247Z,17.00
2018-04-22T22:37:56.402Z,17.00
2018-04-22T22:43:24.552Z,17.00
2018-04-22T22:48:52.699Z,17.00
2018-04-22T22:54:20.843Z,17.00
2018-04-22T22:59:48.988Z,17.00
2018-04-22T23:05:17.948Z,17.00
2018-04-22T23:10:46.093Z,17.00
2018-04-22T23:16:14.256Z,17.00
2018-04-22T23:21:42.399Z,16.90
2018-04-22T23:27:10.547Z,16.80
2018-04-22T23:32:38.721Z,16.80
2018-04-22T23:38:07.626Z,16.70
2018-04-22T23:43:35.790Z,16.70
2018-04-22T23:49:04.728Z,16.60
2018-04-22T23:54:32.931Z,16.60
